Time;durP1;ratioP1;P1;durP2;ratioP2;P2;SDS_P1;SDS_P2;PMS_P1;PMS_P2;Temp;Humidity;BMP_temperature;BMP_pressure;BME280_temperature;BME280_humidity;BME280_pressure;Samples;Min_cycle;Max_cycle;Signal;HPM_P1;HPM_P2
2021/10/13 00:00:32;;;;;;;6.65;4.50;;;8.10;99.90;;;;;;2068336;28;20033;-70
2021/10/13 00:01:32;;;;;;;7.72;4.30;;;8.10;99.90;;;;;;2063681;28;20022;-71
2021/10/13 00:02:33;;;;;;;7.63;4.65;;;8.10;99.90;;;;;;2063503;28;20026;-71
2021/10/13 00:03:33;;;;;;;10.00;4.85;;;8.10;99.90;;;;;;2064507;28;20116;-71
2021/10/13 00:04:34;;;;;;;5.57;4.47;;;8.00;99.90;;;;;;2064846;28;20529;-71
2021/10/13 00:05:34;;;;;;;9.80;4.72;;;8.00;99.90;;;;;;2063154;28;20057;-71
2021/10/13 00:06:35;;;;;;;7.38;4.60;;;8.00;99.90;;;;;;2063804;28;20034;-71
2021/10/13 00:07:35;;;;;;;6.85;4.32;;;8.00;99.90;;;;;;2063768;28;20386;-70
2021/10/13 00:08:36;;;;;;;8.57;4.85;;;8.00;99.90;;;;;;2062932;28;20097;-71
2021/10/13 00:09:37;;;;;;;7.75;4.72;;;8.00;99.90;;;;;;2064254;28;20435;-71
2021/10/13 00:10:37;;;;;;;5.90;4.25;;;8.00;99.90;;;;;;2069554;28;20088;-70
2021/10/13 00:11:38;;;;;;;9.40;5.18;;;8.00;99.90;;;;;;2071523;28;20033;-70
2021/10/13 00:12:39;;;;;;;6.57;4.30;;;8.00;99.90;;;;;;2071421;28;20069;-70
2021/10/13 00:13:39;;;;;;;5.57;4.28;;;8.00;99.90;;;;;;2071655;28;20466;-70
2021/10/13 00:14:40;;;;;;;8.00;4.50;;;8.00;99.90;;;;;;2072789;28;20091;-70
2021/10/13 00:15:41;;;;;;;6.45;4.55;;;8.00;99.90;;;;;;2072888;28;20088;-70
2021/10/13 00:16:51;;;;;;;6.25;4.38;;;8.00;99.90;;;;;;2075192;28;20032;-70
2021/10/13 00:17:52;;;;;;;6.78;4.03;;;8.00;99.90;;;;;;2069720;28;20018;-70
2021/10/13 00:18:52;;;;;;;6.13;4.05;;;8.00;99.90;;;;;;2070450;28;20041;-71
2021/10/13 00:19:53;;;;;;;6.90;4.50;;;8.00;99.90;;;;;;2071609;28;20093;-70
2021/10/13 00:20:53;;;;;;;6.93;4.60;;;8.00;99.90;;;;;;2071468;28;20018;-70
2021/10/13 00:21:54;;;;;;;6.53;5.15;;;8.00;99.90;;;;;;2069109;28;20034;-70
2021/10/13 00:22:54;;;;;;;7.28;4.35;;;8.00;99.90;;;;;;2062882;28;20037;-70
2021/10/13 00:23:55;;;;;;;9.80;5.03;;;8.00;99.90;;;;;;2063487;28;20018;-70
2021/10/13 00:24:55;;;;;;;8.65;4.50;;;8.00;99.90;;;;;;2063500;28;20533;-70
2021/10/13 00:25:56;;;;;;;7.72;4.85;;;8.00;99.90;;;;;;2063334;28;20106;-70
2021/10/13 00:26:57;;;;;;;6.75;4.32;;;8.00;99.90;;;;;;2063342;28;20034;-70
2021/10/13 00:27:57;;;;;;;7.65;4.07;;;8.00;99.90;;;;;;2062721;28;20049;-70
2021/10/13 00:28:58;;;;;;;8.30;4.28;;;8.00;99.90;;;;;;2062348;28;20030;-70
2021/10/13 00:29:58;;;;;;;8.15;4.70;;;8.00;99.90;;;;;;2068506;28;20022;-70
2021/10/13 00:30:59;;;;;;;6.32;4.50;;;8.00;99.90;;;;;;2070288;28;20057;-70
2021/10/13 00:32:02;;;;;;;7.45;3.85;;;8.00;99.90;;;;;;2063549;28;20073;-70
2021/10/13 00:33:03;;;;;;;7.68;4.82;;;8.00;99.90;;;;;;2063318;28;20018;-70
2021/10/13 00:34:03;;;;;;;10.07;5.05;;;8.00;99.90;;;;;;2063629;28;20034;-70
2021/10/13 00:35:04;;;;;;;7.90;4.63;;;8.00;99.90;;;;;;2068505;28;20490;-70
2021/10/13 00:36:05;;;;;;;8.95;4.55;;;7.90;99.90;;;;;;2066736;28;20466;-70
2021/10/13 00:37:06;;;;;;;7.72;4.78;;;8.00;99.90;;;;;;2070679;28;20393;-70
2021/10/13 00:38:06;;;;;;;5.60;4.38;;;8.00;99.90;;;;;;2070128;28;20483;-70
2021/10/13 00:39:07;;;;;;;7.75;4.97;;;7.90;99.90;;;;;;2069601;28;20028;-70
2021/10/13 00:40:08;;;;;;;7.93;4.88;;;8.00;99.90;;;;;;2063700;28;20536;-70
2021/10/13 00:41:08;;;;;;;7.53;4.93;;;8.00;99.90;;;;;;2063037;28;20478;-70
2021/10/13 00:42:09;;;;;;;6.47;4.68;;;8.00;99.90;;;;;;2064600;28;20505;-70
2021/10/13 00:43:09;;;;;;;8.63;4.68;;;8.00;99.90;;;;;;2063495;28;20109;-70
2021/10/13 00:44:11;;;;;;;8.10;4.70;;;7.90;99.90;;;;;;2063487;28;20050;-70
2021/10/13 00:45:11;;;;;;;10.80;5.28;;;7.90;99.90;;;;;;2063571;28;20034;-70
2021/10/13 00:46:12;;;;;;;10.63;5.03;;;8.00;99.90;;;;;;2062436;28;20040;-70
2021/10/13 00:47:13;;;;;;;7.80;5.03;;;8.00;99.90;;;;;;2065201;28;20100;-70
2021/10/13 00:48:13;;;;;;;10.98;5.40;;;8.00;99.90;;;;;;2070924;28;20033;-70
2021/10/13 00:49:14;;;;;;;6.80;4.53;;;8.00;99.90;;;;;;2065618;28;20041;-70
2021/10/13 00:50:14;;;;;;;9.10;4.97;;;8.00;99.90;;;;;;2063571;28;20462;-70
2021/10/13 00:51:15;;;;;;;7.15;4.43;;;8.00;99.90;;;;;;2064158;28;20054;-70
2021/10/13 00:52:18;;;;;;;13.80;5.20;;;8.00;99.90;;;;;;2068730;28;20046;-70
2021/10/13 00:53:19;;;;;;;8.60;5.25;;;8.00;99.90;;;;;;2063346;28;20030;-70
2021/10/13 00:54:23;;;;;;;6.25;4.38;;;8.00;99.90;;;;;;2063340;28;20023;-70
2021/10/13 00:55:23;;;;;;;7.07;4.60;;;8.00;99.90;;;;;;2063251;28;20026;-70
2021/10/13 00:56:25;;;;;;;9.75;4.72;;;7.90;99.90;;;;;;2063289;28;20109;-70
2021/10/13 00:57:25;;;;;;;8.50;4.75;;;7.90;99.90;;;;;;2066285;28;20498;-70
2021/10/13 00:58:26;;;;;;;8.65;4.97;;;7.90;99.90;;;;;;2067837;28;20515;-70
2021/10/13 00:59:26;;;;;;;8.13;5.35;;;8.00;99.90;;;;;;2069573;28;20024;-70
2021/10/13 01:00:28;;;;;;;7.35;4.70;;;8.00;99.90;;;;;;2067955;28;20366;-71
2021/10/13 01:01:33;;;;;;;10.45;4.90;;;7.90;99.90;;;;;;2062556;28;20038;-70
2021/10/13 01:02:41;;;;;;;10.82;5.07;;;7.90;99.90;;;;;;2063124;28;20032;-70
2021/10/13 01:03:49;;;;;;;9.32;5.28;;;8.00;99.90;;;;;;2067309;28;20029;-70
2021/10/13 01:05:06;;;;;;;8.45;4.47;;;7.90;99.90;;;;;;2063273;28;20446;-70
2021/10/13 01:06:31;;;;;;;11.20;5.05;;;7.90;99.90;;;;;;2063254;28;20026;-70
2021/10/13 01:07:38;;;;;;;8.65;5.07;;;7.90;99.90;;;;;;2063393;28;20023;-70
2021/10/13 01:09:04;;;;;;;8.15;4.32;;;7.90;99.90;;;;;;2066916;28;20026;-70
2021/10/13 01:10:28;;;;;;;5.82;4.47;;;7.90;99.90;;;;;;2071194;28;20026;-70
2021/10/13 01:12:12;;;;;;;7.18;5.00;;;7.80;99.90;;;;;;2070197;28;20108;-71
2021/10/13 01:13:27;;;;;;;5.43;4.28;;;7.80;99.90;;;;;;2063398;28;20018;-70
2021/10/13 01:14:36;;;;;;;8.43;4.75;;;7.80;99.90;;;;;;2078976;28;20029;-70
2021/10/13 01:15:58;;;;;;;4.45;3.50;;;7.80;99.90;;;;;;2062618;28;20448;-70
2021/10/13 01:17:30;;;;;;;9.95;5.07;;;7.80;99.90;;;;;;2069322;28;20474;-71
2021/10/13 01:18:54;;;;;;;7.97;4.32;;;7.80;99.90;;;;;;2057234;28;20096;-70
2021/10/13 01:20:01;;;;;;;9.05;4.53;;;7.70;99.90;;;;;;2061543;28;20642;-70
2021/10/13 01:21:46;;;;;;;9.82;5.90;;;7.80;99.90;;;;;;2070410;28;20022;-70
2021/10/13 01:23:02;;;;;;;6.20;4.38;;;7.70;99.90;;;;;;2063729;28;20026;-70
2021/10/13 01:24:30;;;;;;;8.15;4.80;;;7.70;99.90;;;;;;2063354;28;20018;-71
2021/10/13 01:25:45;;;;;;;9.32;5.63;;;7.70;99.90;;;;;;2063298;28;20034;-70
2021/10/13 01:26:58;;;;;;;8.77;5.13;;;7.70;99.90;;;;;;2069206;28;21100;-71
2021/10/13 01:28:20;;;;;;;10.20;5.57;;;7.70;99.90;;;;;;2068260;28;20052;-70
2021/10/13 01:29:22;;;;;;;12.07;5.20;;;7.70;99.90;;;;;;2071147;28;20034;-70
2021/10/13 01:30:24;;;;;;;9.75;5.10;;;7.70;99.90;;;;;;2071169;28;20018;-70
2021/10/13 01:31:49;;;;;;;7.60;5.10;;;7.70;99.90;;;;;;2070433;28;20034;-70
2021/10/13 01:33:15;;;;;;;7.38;4.93;;;7.70;99.90;;;;;;2065104;28;20378;-71
2021/10/13 01:34:27;;;;;;;8.32;4.53;;;7.70;99.90;;;;;;2056024;28;20080;-70
2021/10/13 01:35:30;;;;;;;5.78;4.40;;;7.70;99.90;;;;;;2064141;28;20102;-70
2021/10/13 01:36:37;;;;;;;6.65;4.60;;;7.70;99.90;;;;;;2070906;28;20034;-70
2021/10/13 01:37:52;;;;;;;6.95;4.70;;;7.70;99.90;;;;;;2066914;28;20482;-70
2021/10/13 01:38:56;;;;;;;8.93;4.88;;;7.70;99.90;;;;;;2072416;28;20033;-70
2021/10/13 01:39:59;;;;;;;7.03;4.18;;;7.70;99.90;;;;;;2064225;28;20903;-70
2021/10/13 01:41:02;;;;;;;8.10;4.35;;;7.70;99.90;;;;;;2062700;28;20034;-71
2021/10/13 01:42:05;;;;;;;7.72;4.82;;;7.70;99.90;;;;;;2072478;28;20351;-70
2021/10/13 01:43:05;;;;;;;8.50;5.07;;;7.70;99.90;;;;;;2070495;28;20105;-70
2021/10/13 01:44:11;;;;;;;6.95;4.40;;;7.70;99.90;;;;;;2069987;28;20094;-70
2021/10/13 01:45:12;;;;;;;9.85;4.50;;;7.70;99.90;;;;;;2067632;28;20359;-70
2021/10/13 01:46:16;;;;;;;6.78;4.95;;;7.70;99.90;;;;;;2066688;28;20475;-70
2021/10/13 01:47:20;;;;;;;7.57;4.40;;;7.70;99.90;;;;;;2065973;28;20045;-71
2021/10/13 01:48:22;;;;;;;9.93;5.60;;;7.70;99.90;;;;;;2071616;28;20055;-70
2021/10/13 01:49:23;;;;;;;6.00;4.68;;;7.70;99.90;;;;;;2069331;28;20371;-71
2021/10/13 01:50:25;;;;;;;9.13;4.30;;;7.70;99.90;;;;;;2070973;28;20030;-71
2021/10/13 01:51:28;;;;;;;7.70;4.43;;;7.70;99.90;;;;;;2064557;28;20471;-71
2021/10/13 01:52:30;;;;;;;9.82;5.90;;;7.70;99.90;;;;;;2064700;28;20472;-71
2021/10/13 01:53:32;;;;;;;14.13;5.93;;;7.70;99.90;;;;;;2064522;28;20116;-71
2021/10/13 01:54:36;;;;;;;7.75;5.05;;;7.70;99.90;;;;;;2073239;28;20117;-71
2021/10/13 01:55:39;;;;;;;8.30;5.38;;;7.80;99.90;;;;;;2071993;28;20033;-71
2021/10/13 01:56:41;;;;;;;10.60;6.10;;;7.70;99.90;;;;;;2072319;28;20061;-70
2021/10/13 01:57:45;;;;;;;9.07;5.25;;;7.80;99.90;;;;;;2071617;28;20037;-71
2021/10/13 01:58:47;;;;;;;10.13;5.30;;;7.80;99.90;;;;;;2070501;28;20026;-71
2021/10/13 01:59:51;;;;;;;9.63;4.88;;;7.80;99.90;;;;;;2072475;28;20382;-71
2021/10/13 02:00:52;;;;;;;8.68;5.45;;;7.80;99.90;;;;;;2065657;28;20030;-71
2021/10/13 02:01:53;;;;;;;12.07;5.82;;;7.80;99.90;;;;;;2064397;28;20026;-71
2021/10/13 02:02:56;;;;;;;7.82;5.47;;;7.90;99.90;;;;;;2064764;28;20513;-71
2021/10/13 02:04:04;;;;;;;6.47;4.70;;;7.80;99.90;;;;;;2064308;28;20018;-71
2021/10/13 02:05:07;;;;;;;8.02;4.82;;;7.80;99.90;;;;;;2069006;28;20040;-71
2021/10/13 02:06:09;;;;;;;8.57;5.18;;;7.90;99.90;;;;;;2064356;28;20026;-71
2021/10/13 02:07:11;;;;;;;11.60;5.63;;;7.90;99.90;;;;;;2064395;28;20052;-70
2021/10/13 02:08:14;;;;;;;11.70;6.20;;;7.90;99.90;;;;;;2064000;28;20026;-71
2021/10/13 02:09:16;;;;;;;6.78;4.97;;;7.90;99.90;;;;;;2064650;28;20020;-71
2021/10/13 02:10:21;;;;;;;9.07;5.30;;;7.90;99.90;;;;;;2064590;28;20022;-71
2021/10/13 02:11:28;;;;;;;6.55;4.68;;;7.90;99.90;;;;;;2064530;28;20844;-70
2021/10/13 02:12:31;;;;;;;9.77;5.80;;;7.90;99.90;;;;;;2064400;28;20057;-70
2021/10/13 02:13:34;;;;;;;8.73;5.70;;;7.90;99.90;;;;;;2067315;28;20022;-71
2021/10/13 02:14:38;;;;;;;9.13;5.35;;;8.00;99.90;;;;;;2071702;28;20064;-71
2021/10/13 02:15:42;;;;;;;8.85;5.82;;;8.00;99.90;;;;;;2065981;28;20038;-71
2021/10/13 02:16:47;;;;;;;10.27;6.03;;;8.00;99.90;;;;;;2069349;28;20407;-71
2021/10/13 02:17:51;;;;;;;14.73;6.75;;;8.00;99.90;;;;;;2064673;28;20033;-71
2021/10/13 02:18:53;;;;;;;9.98;6.05;;;8.00;99.90;;;;;;2065765;28;20025;-71
2021/10/13 02:19:56;;;;;;;9.30;5.88;;;8.10;99.90;;;;;;2064858;28;20101;-71
2021/10/13 02:20:59;;;;;;;12.48;6.10;;;8.10;99.90;;;;;;2064033;28;20032;-71
2021/10/13 02:22:02;;;;;;;11.02;5.70;;;8.10;99.90;;;;;;2064756;28;20050;-71
2021/10/13 02:23:05;;;;;;;13.88;6.47;;;8.10;99.90;;;;;;2064449;28;20047;-71
2021/10/13 02:24:07;;;;;;;10.05;5.97;;;8.10;99.90;;;;;;2064456;28;20518;-71
2021/10/13 02:25:08;;;;;;;12.35;6.63;;;8.20;99.90;;;;;;2064130;28;20062;-71
2021/10/13 02:26:12;;;;;;;13.38;6.97;;;8.20;99.90;;;;;;2064397;28;20378;-71
2021/10/13 02:27:38;;;;;;;13.05;6.78;;;8.20;99.90;;;;;;2064252;28;20022;-71
2021/10/13 02:28:46;;;;;;;12.98;6.68;;;8.20;99.90;;;;;;2063894;28;20018;-71
2021/10/13 02:29:46;;;;;;;12.55;7.90;;;8.20;99.90;;;;;;2068947;28;20503;-71
2021/10/13 02:30:47;;;;;;;14.63;7.38;;;8.30;99.90;;;;;;2072153;28;20390;-71
2021/10/13 02:31:48;;;;;;;12.57;7.28;;;8.30;99.90;;;;;;2064446;28;20473;-71
2021/10/13 02:32:49;;;;;;;16.58;6.93;;;8.30;99.90;;;;;;2063705;28;20088;-71
2021/10/13 02:33:49;;;;;;;15.40;7.03;;;8.30;99.90;;;;;;2071707;28;20026;-71
2021/10/13 02:34:51;;;;;;;14.07;7.13;;;8.40;99.90;;;;;;2066173;28;20018;-71
2021/10/13 02:35:51;;;;;;;14.57;7.13;;;8.40;99.90;;;;;;2063789;28;20061;-71
2021/10/13 02:36:52;;;;;;;14.25;7.47;;;8.40;99.90;;;;;;2067134;28;20026;-71
2021/10/13 02:37:53;;;;;;;19.38;7.57;;;8.40;99.90;;;;;;2071227;28;20026;-71
2021/10/13 02:38:53;;;;;;;10.07;6.13;;;8.40;99.90;;;;;;2071650;28;20018;-71
2021/10/13 02:39:54;;;;;;;13.18;6.15;;;8.50;99.90;;;;;;2064525;28;20030;-72
2021/10/13 02:40:54;;;;;;;12.35;6.55;;;8.40;99.90;;;;;;2071602;28;20068;-71
2021/10/13 02:41:55;;;;;;;14.32;6.70;;;8.50;99.90;;;;;;2071468;28;20080;-71
2021/10/13 02:42:56;;;;;;;12.32;7.50;;;8.50;99.90;;;;;;2064124;28;20099;-71
2021/10/13 02:43:57;;;;;;;11.00;6.85;;;8.50;99.90;;;;;;2071490;28;20034;-71
2021/10/13 02:44:58;;;;;;;14.52;7.57;;;8.50;99.90;;;;;;2064373;28;20018;-71
2021/10/13 02:46:20;;;;;;;11.98;6.90;;;8.50;99.90;;;;;;2064159;28;20092;-71
2021/10/13 02:47:35;;;;;;;11.63;6.60;;;8.50;99.90;;;;;;2063718;28;20022;-71
2021/10/13 02:48:39;;;;;;;10.85;6.38;;;8.50;99.90;;;;;;2063624;28;20058;-71
2021/10/13 02:49:47;;;;;;;13.40;6.72;;;8.60;99.90;;;;;;2077908;28;20022;-71
2021/10/13 02:51:10;;;;;;;11.15;6.05;;;8.60;99.90;;;;;;2075732;28;20030;-71
2021/10/13 02:52:21;;;;;;;12.63;6.90;;;8.60;99.90;;;;;;2063815;28;20109;-71
2021/10/13 02:53:38;;;;;;;12.45;7.00;;;8.60;99.90;;;;;;2064360;28;20069;-71
2021/10/13 02:54:43;;;;;;;11.98;6.13;;;8.60;99.90;;;;;;2064355;28;20427;-71
2021/10/13 02:55:58;;;;;;;9.68;5.78;;;8.60;99.90;;;;;;2063914;28;20105;-71
2021/10/13 02:57:02;;;;;;;13.27;5.78;;;8.60;99.90;;;;;;2064107;28;20025;-71
2021/10/13 02:58:08;;;;;;;11.75;6.07;;;8.60;99.90;;;;;;2072043;28;20405;-71
2021/10/13 02:59:10;;;;;;;13.70;5.93;;;8.60;99.90;;;;;;2069997;28;20038;-71
2021/10/13 03:00:13;;;;;;;8.25;5.45;;;8.60;99.90;;;;;;2071201;28;20470;-71
2021/10/13 03:01:16;;;;;;;11.45;6.45;;;8.60;99.90;;;;;;2064120;28;20434;-72
2021/10/13 03:02:27;;;;;;;7.78;4.75;;;8.70;99.90;;;;;;2067119;28;20023;-71
2021/10/13 03:03:39;;;;;;;10.07;5.68;;;8.70;99.90;;;;;;2069120;28;20521;-71
2021/10/13 03:04:47;;;;;;;11.40;5.47;;;8.70;99.90;;;;;;2063850;28;20030;-71
2021/10/13 03:05:49;;;;;;;10.50;6.05;;;8.70;99.90;;;;;;2063883;28;20042;-71
2021/10/13 03:07:12;;;;;;;11.07;6.05;;;8.70;99.90;;;;;;2063658;28;20036;-71
2021/10/13 03:08:15;;;;;;;11.20;5.97;;;8.70;99.90;;;;;;2063112;28;20026;-71
2021/10/13 03:09:20;;;;;;;12.73;5.70;;;8.60;99.90;;;;;;2062928;28;20066;-71
2021/10/13 03:10:22;;;;;;;10.38;6.20;;;8.60;99.90;;;;;;2063092;28;20030;-72
2021/10/13 03:11:25;;;;;;;11.80;5.95;;;8.60;99.90;;;;;;2067677;28;20112;-71
2021/10/13 03:12:30;;;;;;;9.02;5.28;;;8.60;99.90;;;;;;2064225;28;20030;-71
2021/10/13 03:13:35;;;;;;;9.13;5.25;;;8.60;99.90;;;;;;2064065;28;20034;-71
2021/10/13 03:14:38;;;;;;;8.85;5.60;;;8.60;99.90;;;;;;2063534;28;20409;-71
2021/10/13 03:15:43;;;;;;;10.95;5.45;;;8.60;99.90;;;;;;2066027;28;20023;-71
2021/10/13 03:16:44;;;;;;;5.35;4.18;;;8.60;99.90;;;;;;2068793;28;20046;-71
2021/10/13 03:17:50;;;;;;;10.30;5.38;;;8.60;99.90;;;;;;2063910;28;20018;-71
2021/10/13 03:18:51;;;;;;;14.18;5.88;;;8.60;99.90;;;;;;2063098;28;20031;-71
2021/10/13 03:19:55;;;;;;;9.02;5.20;;;8.60;99.90;;;;;;2064128;28;20391;-71
2021/10/13 03:20:55;;;;;;;7.70;4.65;;;8.60;99.90;;;;;;2063652;28;20026;-72
2021/10/13 03:21:56;;;;;;;11.23;5.35;;;8.60;99.90;;;;;;2064201;28;20097;-71
2021/10/13 03:22:59;;;;;;;11.05;5.68;;;8.60;99.90;;;;;;2065939;28;20113;-71
2021/10/13 03:24:00;;;;;;;7.75;5.57;;;8.60;99.90;;;;;;2072232;28;20026;-71
2021/10/13 03:25:01;;;;;;;6.85;5.43;;;8.60;99.90;;;;;;2071743;28;20040;-71
2021/10/13 03:26:10;;;;;;;8.77;4.72;;;8.60;99.90;;;;;;2071908;28;20112;-71
2021/10/13 03:27:11;;;;;;;9.00;5.65;;;8.60;99.90;;;;;;2072015;28;20030;-71
2021/10/13 03:28:13;;;;;;;8.73;4.82;;;8.50;99.90;;;;;;2071357;28;20524;-71
2021/10/13 03:29:15;;;;;;;8.57;6.63;;;8.50;99.90;;;;;;2071645;28;20072;-71
2021/10/13 03:30:15;;;;;;;9.20;6.05;;;8.50;99.90;;;;;;2070583;28;20061;-71
2021/10/13 03:31:17;;;;;;;9.40;6.25;;;8.50;99.90;;;;;;2067781;28;20015;-71
2021/10/13 03:32:18;;;;;;;13.25;6.72;;;8.50;99.90;;;;;;2063844;28;20023;-71
2021/10/13 03:33:18;;;;;;;11.07;6.72;;;8.50;99.90;;;;;;2063546;28;20058;-72
2021/10/13 03:34:19;;;;;;;8.35;6.40;;;8.50;99.90;;;;;;2063166;28;20109;-71
2021/10/13 03:35:28;;;;;;;9.20;6.30;;;8.50;99.90;;;;;;2062885;28;20034;-71
2021/10/13 03:36:37;;;;;;;13.65;5.95;;;8.50;99.90;;;;;;2069351;28;20537;-71
2021/10/13 03:37:38;;;;;;;6.07;4.95;;;8.40;99.90;;;;;;2070507;28;20021;-71
2021/10/13 03:38:38;;;;;;;9.60;6.25;;;8.40;99.90;;;;;;2071341;28;20109;-71
2021/10/13 03:39:39;;;;;;;10.63;6.22;;;8.40;99.90;;;;;;2064443;28;20089;-71
2021/10/13 03:40:39;;;;;;;10.80;6.22;;;8.40;99.90;;;;;;2064367;28;20089;-71
2021/10/13 03:41:41;;;;;;;6.95;5.35;;;8.40;99.90;;;;;;2066824;28;20029;-71
2021/10/13 03:42:42;;;;;;;11.10;6.40;;;8.40;99.90;;;;;;2069248;28;20080;-71
2021/10/13 03:43:50;;;;;;;11.32;7.30;;;8.40;99.90;;;;;;2071065;28;20025;-71
2021/10/13 03:44:50;;;;;;;12.95;6.45;;;8.40;99.90;;;;;;2063758;28;20026;-71
2021/10/13 03:45:51;;;;;;;10.15;5.70;;;8.40;99.90;;;;;;2066276;28;20022;-71
2021/10/13 03:46:51;;;;;;;11.73;6.10;;;8.30;99.90;;;;;;2071518;28;20398;-71
2021/10/13 03:47:52;;;;;;;8.32;6.45;;;8.30;99.90;;;;;;2071566;28;20038;-71
2021/10/13 03:48:54;;;;;;;8.15;5.18;;;8.30;99.90;;;;;;2071117;28;20028;-71
2021/10/13 03:49:54;;;;;;;10.95;5.70;;;8.30;99.90;;;;;;2071064;28;20030;-71
2021/10/13 03:50:55;;;;;;;8.32;5.88;;;8.30;99.90;;;;;;2070808;28;20053;-71
2021/10/13 03:51:56;;;;;;;10.13;6.50;;;8.30;99.90;;;;;;2070973;28;20033;-71
2021/10/13 03:52:56;;;;;;;10.80;6.90;;;8.30;99.90;;;;;;2066640;28;20394;-71
2021/10/13 03:53:57;;;;;;;10.63;7.20;;;8.30;99.90;;;;;;2071058;28;20084;-71
2021/10/13 03:54:57;;;;;;;10.15;5.68;;;8.30;99.90;;;;;;2072013;28;20033;-71
2021/10/13 03:55:58;;;;;;;9.43;5.63;;;8.30;99.90;;;;;;2070937;28;20552;-71
2021/10/13 03:56:59;;;;;;;10.80;5.75;;;8.30;99.90;;;;;;2070597;28;20029;-71
2021/10/13 03:58:00;;;;;;;10.15;6.97;;;8.30;99.90;;;;;;2070804;28;20649;-71
2021/10/13 03:59:00;;;;;;;8.93;5.28;;;8.20;99.90;;;;;;2068249;28;20018;-71
2021/10/13 04:00:04;;;;;;;10.10;5.65;;;8.20;99.90;;;;;;2062754;28;20027;-71
2021/10/13 04:01:05;;;;;;;12.50;7.00;;;8.20;99.90;;;;;;2062579;28;20030;-71
2021/10/13 04:02:06;;;;;;;7.45;5.80;;;8.20;99.90;;;;;;2063621;28;20026;-71
2021/10/13 04:03:06;;;;;;;9.57;6.85;;;8.20;99.90;;;;;;2067857;28;20022;-71
2021/10/13 04:04:07;;;;;;;9.68;5.70;;;8.20;99.90;;;;;;2064783;28;20097;-71
2021/10/13 04:05:08;;;;;;;9.05;5.65;;;8.20;99.90;;;;;;2063253;28;20019;-71
2021/10/13 04:06:09;;;;;;;11.93;6.60;;;8.20;99.90;;;;;;2063865;28;20028;-71
2021/10/13 04:07:09;;;;;;;9.07;6.00;;;8.20;99.90;;;;;;2063258;28;20049;-70
2021/10/13 04:08:10;;;;;;;9.63;6.53;;;8.20;99.90;;;;;;2062572;28;20032;-71
2021/10/13 04:09:10;;;;;;;10.55;7.72;;;8.20;99.90;;;;;;2063292;28;20033;-71
2021/10/13 04:10:14;;;;;;;11.15;7.57;;;8.20;99.90;;;;;;2063007;28;20490;-71
2021/10/13 04:11:14;;;;;;;14.15;7.82;;;8.20;99.90;;;;;;2063141;28;20023;-71
2021/10/13 04:12:15;;;;;;;11.57;7.10;;;8.20;99.90;;;;;;2064665;28;20025;-71
2021/10/13 04:13:16;;;;;;;11.70;8.00;;;8.20;99.90;;;;;;2069543;28;20053;-71
2021/10/13 04:14:16;;;;;;;9.40;7.00;;;8.20;99.90;;;;;;2062884;28;20019;-71
2021/10/13 04:15:17;;;;;;;8.88;5.95;;;8.20;99.90;;;;;;2062672;28;20076;-71
2021/10/13 04:16:18;;;;;;;13.90;7.43;;;8.20;99.90;;;;;;2063226;28;20022;-71
2021/10/13 04:17:18;;;;;;;14.98;8.13;;;8.20;99.90;;;;;;2062891;28;20574;-71
2021/10/13 04:18:19;;;;;;;13.25;8.30;;;8.10;99.90;;;;;;2062658;28;20021;-71
2021/10/13 04:19:20;;;;;;;14.77;8.65;;;8.20;99.90;;;;;;2063547;28;20030;-71
2021/10/13 04:20:21;;;;;;;13.80;8.15;;;8.10;99.90;;;;;;2063347;28;20439;-71
2021/10/13 04:21:21;;;;;;;11.23;7.18;;;8.20;99.90;;;;;;2063743;28;20493;-71
2021/10/13 04:22:22;;;;;;;12.32;7.38;;;8.10;99.90;;;;;;2067762;28;20022;-71
2021/10/13 04:23:22;;;;;;;12.10;8.20;;;8.20;99.90;;;;;;2068594;28;20037;-71
2021/10/13 04:24:23;;;;;;;12.75;7.90;;;8.10;99.90;;;;;;2070897;28;20050;-71
2021/10/13 04:25:23;;;;;;;10.20;7.03;;;8.20;99.90;;;;;;2071025;28;20032;-71
2021/10/13 04:26:24;;;;;;;12.38;8.23;;;8.20;99.90;;;;;;2069985;28;20169;-71
2021/10/13 04:27:25;;;;;;;15.10;7.85;;;8.20;99.90;;;;;;2070250;28;20057;-71
2021/10/13 04:28:25;;;;;;;11.35;7.05;;;8.20;99.90;;;;;;2064309;28;20030;-72
2021/10/13 04:29:26;;;;;;;13.73;8.85;;;8.20;99.90;;;;;;2070864;28;20061;-71
2021/10/13 04:30:26;;;;;;;10.27;7.85;;;8.20;99.90;;;;;;2078907;28;20024;-71
2021/10/13 04:31:27;;;;;;;14.45;9.32;;;8.20;99.90;;;;;;2065428;28;20050;-71
2021/10/13 04:32:27;;;;;;;14.93;9.57;;;8.20;99.90;;;;;;2079048;28;20021;-71
2021/10/13 04:33:28;;;;;;;11.50;8.10;;;8.20;99.90;;;;;;2066028;28;20030;-71
2021/10/13 04:34:29;;;;;;;12.10;7.45;;;8.20;99.90;;;;;;2071136;28;20100;-71
2021/10/13 04:35:30;;;;;;;12.25;8.48;;;8.30;99.90;;;;;;2069223;28;20168;-71
2021/10/13 04:36:30;;;;;;;16.65;9.70;;;8.30;99.90;;;;;;2069510;28;20033;-72
2021/10/13 04:37:31;;;;;;;17.40;10.20;;;8.30;99.90;;;;;;2070619;28;20026;-71
2021/10/13 04:38:31;;;;;;;14.48;9.68;;;8.30;99.90;;;;;;2069680;28;20088;-71
2021/10/13 04:39:32;;;;;;;13.98;9.85;;;8.30;99.90;;;;;;2071091;28;20101;-71
2021/10/13 04:40:33;;;;;;;16.80;9.52;;;8.30;99.90;;;;;;2070658;28;20071;-72
2021/10/13 04:41:34;;;;;;;18.67;10.02;;;8.30;99.90;;;;;;2069152;28;20030;-72
2021/10/13 04:42:35;;;;;;;20.58;10.95;;;8.30;99.90;;;;;;2069563;28;20466;-71
2021/10/13 04:43:35;;;;;;;17.85;10.60;;;8.30;99.90;;;;;;2066961;28;20418;-71
2021/10/13 04:44:36;;;;;;;14.63;9.10;;;8.40;99.90;;;;;;2066613;28;20093;-71
2021/10/13 04:45:37;;;;;;;18.13;10.18;;;8.40;99.90;;;;;;2068594;28;20026;-71
2021/10/13 04:46:37;;;;;;;14.25;9.40;;;8.40;99.90;;;;;;2064981;28;20052;-71
2021/10/13 04:47:38;;;;;;;16.02;10.32;;;8.40;99.90;;;;;;2070663;28;20101;-71
2021/10/13 04:48:38;;;;;;;14.90;9.88;;;8.40;99.90;;;;;;2069443;28;20033;-71
2021/10/13 04:49:39;;;;;;;15.45;10.00;;;8.40;99.90;;;;;;2070146;28;20026;-71
2021/10/13 04:50:39;;;;;;;14.20;10.32;;;8.40;99.90;;;;;;2069809;28;20124;-71
2021/10/13 04:51:40;;;;;;;21.52;11.18;;;8.50;99.90;;;;;;2071476;28;20021;-71
2021/10/13 04:52:40;;;;;;;14.35;9.82;;;8.50;99.90;;;;;;2069539;28;20053;-71
2021/10/13 04:53:41;;;;;;;22.67;11.38;;;8.50;99.90;;;;;;2069692;28;20026;-71
2021/10/13 04:54:41;;;;;;;17.55;10.35;;;8.50;99.90;;;;;;2069792;28;20026;-71
2021/10/13 04:55:42;;;;;;;17.70;11.40;;;8.50;99.90;;;;;;2070492;28;20026;-71
2021/10/13 04:56:43;;;;;;;18.77;10.43;;;8.50;99.90;;;;;;2069795;28;20427;-71
2021/10/13 04:57:43;;;;;;;12.02;9.73;;;8.60;99.90;;;;;;2070541;28;20022;-71
2021/10/13 04:58:44;;;;;;;17.27;11.82;;;8.60;99.90;;;;;;2069834;28;20126;-71
2021/10/13 04:59:44;;;;;;;16.17;10.73;;;8.60;99.90;;;;;;2067822;28;20529;-71
2021/10/13 05:00:45;;;;;;;20.65;11.25;;;8.60;99.90;;;;;;2070539;28;20049;-71
2021/10/13 05:01:46;;;;;;;17.52;11.23;;;8.60;99.90;;;;;;2070962;28;20033;-71
2021/10/13 05:02:47;;;;;;;15.00;10.80;;;8.60;99.90;;;;;;2071469;28;20104;-71
2021/10/13 05:03:48;;;;;;;16.95;11.43;;;8.60;99.90;;;;;;2070573;28;20060;-71
2021/10/13 05:04:48;;;;;;;19.63;11.77;;;8.60;99.90;;;;;;2071493;28;20033;-71
2021/10/13 05:05:49;;;;;;;14.05;10.77;;;8.60;99.90;;;;;;2071970;28;20064;-71
2021/10/13 05:06:49;;;;;;;15.10;10.95;;;8.70;99.90;;;;;;2072295;28;20051;-71
2021/10/13 05:07:50;;;;;;;19.15;12.52;;;8.70;99.90;;;;;;2072209;28;20025;-71
2021/10/13 05:08:50;;;;;;;17.73;11.13;;;8.70;99.90;;;;;;2068779;28;20026;-71
2021/10/13 05:09:51;;;;;;;19.38;11.65;;;8.70;99.90;;;;;;2070720;28;20112;-71
2021/10/13 05:10:51;;;;;;;13.85;11.15;;;8.70;99.90;;;;;;2073159;28;20033;-71
2021/10/13 05:11:52;;;;;;;16.90;11.52;;;8.70;99.90;;;;;;2073785;28;20025;-71
2021/10/13 05:12:52;;;;;;;16.83;11.20;;;8.70;99.90;;;;;;2072823;28;20029;-71
2021/10/13 05:13:53;;;;;;;15.60;11.35;;;8.70;99.90;;;;;;2071785;28;20121;-71
2021/10/13 05:14:53;;;;;;;25.77;12.02;;;8.70;99.90;;;;;;2063447;28;20026;-71
2021/10/13 05:15:54;;;;;;;20.98;11.60;;;8.70;99.90;;;;;;2070747;28;20541;-71
2021/10/13 05:16:55;;;;;;;17.52;11.20;;;8.80;99.90;;;;;;2072157;28;20034;-71
2021/10/13 05:17:55;;;;;;;17.90;11.48;;;8.80;99.90;;;;;;2070587;28;20088;-71
2021/10/13 05:18:56;;;;;;;19.50;11.13;;;8.80;99.90;;;;;;2060003;28;20023;-71
2021/10/13 05:19:56;;;;;;;19.65;11.38;;;8.80;99.90;;;;;;2071137;28;20011;-71
2021/10/13 05:20:57;;;;;;;15.18;10.88;;;8.80;99.90;;;;;;2071557;28;20537;-71
2021/10/13 05:21:57;;;;;;;16.40;10.93;;;8.80;99.90;;;;;;2071655;28;20017;-71
2021/10/13 05:22:58;;;;;;;18.90;10.68;;;8.80;99.90;;;;;;2071640;28;20382;-71
2021/10/13 05:23:59;;;;;;;15.70;10.20;;;8.80;99.90;;;;;;2070696;28;20037;-71
2021/10/13 05:24:59;;;;;;;16.15;10.38;;;8.80;99.90;;;;;;2072298;28;20033;-71
2021/10/13 05:26:00;;;;;;;19.08;11.20;;;8.80;99.90;;;;;;2071307;28;20022;-71
2021/10/13 05:27:01;;;;;;;13.13;10.13;;;8.80;99.90;;;;;;2070850;28;20513;-71
2021/10/13 05:28:01;;;;;;;14.88;9.75;;;8.80;99.90;;;;;;2071394;28;20030;-71
2021/10/13 05:29:03;;;;;;;15.63;10.18;;;8.80;99.90;;;;;;2071942;28;20026;-71
2021/10/13 05:30:04;;;;;;;15.55;9.85;;;8.80;99.90;;;;;;2070244;28;20064;-71
2021/10/13 05:31:05;;;;;;;11.80;8.38;;;8.90;99.90;;;;;;2068702;28;20034;-71
2021/10/13 05:32:05;;;;;;;17.98;9.23;;;8.90;99.90;;;;;;2069858;28;20039;-72